Terminal Aerodrome Forecast
Issued by NWS Tuscon, AZ

Home | Current Version | Previous Version | Text Only | Print | Product List | Glossary On
Versions: 1 2 3 4 5 6 7 8 9 10 11 12 13
823
FTUS45 KTWC 230539
TAFTUS
TAF
KTUS 230539Z 2306/2406 13008KT P6SM SKC
     FM231300 16011KT P6SM BKN110
     FM231700 21014G24KT P6SM BKN080 OVC110
     FM232200 25017G27KT P6SM BKN060 OVC100
     FM240200 22015G25KT P6SM -SHRA SCT040 OVC060=

USA.gov is the U.S. government's official web portal to all federal, state and local government web resources and services.